Spring Lake, NJ

5:03 AM EDT on May 30, 2015 (GMT -0400)
Win-tron Electronics | | Change Station
CLOSE
Current Station
Personal Weather Station
Location: Spring Lake Heights, NJ
Elevation: 26 ft
Nearby Weather Stations
Active Advisory: Special Statement

Elev 26 ft 40.15 °N, 74.04 °W | Updated 23 days ago

Partly Cloudy
Partly Cloudy
64 °F
Feels Like 64 °F
N
3
Wind Variable Wind from South
Gusts mph

Today
High -- | Low -- °F
--% Chance of Precip.
Yesterday
High -- | Low -- °F
Precip. -- in
5:29 AM 8:17 PM
Waxing Gibbous, 89% visible
Pressure 30.21 in
Visibility 10.0 miles
Clouds Clear
Dew Point 59 °F
Humidity 85%
Rainfall in
Snow Depth Not available.
UV 0 out of 12
Pollen 7.70 out of 12
Air Quality Not available.
Flu Activity Sporadic
METAR KBLM 300855Z AUTO 00000KT 10SM CLR 17/14 A3021 RMK AO1 57003

More Conditions Fewer Conditions

Pressure 30.21 in
Visibility 10.0 miles
Clouds Clear
Dew Point 59 °F
Humidity 85%
Rainfall in
Snow Depth Not available.
UV 0 out of 12
Pollen 7.70 out of 12
Air Quality Not available.
Flu Activity Sporadic
METAR KBLM 300855Z AUTO 00000KT 10SM CLR 17/14 A3021 RMK AO1 57003

More Conditions Fewer Conditions

10-Day Weather Forecast

Almanac

Astronomy

May. 30, 2015 Rise Set
Actual Time
Civil Twilight
Nautical Twilight
Astronomical Twilight
Moon
Length of Visible Light
Length of Day
Tomorrow will be .
, % of the Moon is Illuminated

Today's Extremes

State Highs State Lows

Community

WunderPhotos

Upload Photos

1,825,473 photos uploaded!

WunderBlogs® & News

Nearby

Air Quality

  Air Quality AQ Index Pollutant
Not available.

Snow Depth

Station Depth Elevation

Earthquake Activity

City Distance Mag. Time & Date
Minimum magnitude displayed is 2.5.

Coastal Water Temperatures

Place Temperature

Stations

Nearby Weather Stations

Station Location Temp. Windchill Dew Point Humidity Wind Precip. Elev Updated Type
                   
Special Statement
Statement as of 4:03 AM EDT on May 30, 2015

... Patchy fog this morning...

Patchy fog will occur across coastal sections of New Jersey and
Delaware this morning. Visibilities may lower to as low as one
half mile at times.

Be alert for rapidly changing visibilities this morning while
driving. If driving... slow down... use your headlights... and leave
plenty of distance ahead of you.


Robertson

403 am EDT Sat may 30 2015

... Patchy fog this morning...

Patchy fog will occur across coastal sections of New Jersey and
Delaware this morning. Visibilities may lower to as low as one
half mile at times.

Be alert for rapidly changing visibilities this morning while
driving. If driving... slow down... use your headlights... and leave
plenty of distance ahead of you.


Robertson